Terminal Aerodrome Forecast
Issued by NWS

Home | Current Version | Previous Version | Text Only | Print | Product List | Glossary On
Versions: 1 2 3 4 5 6 7 8 9 10 11 12 13
000
FTUS43 KICT 291341 AAA
TAFCNU
TAF AMD
KCNU 291341Z 2914/3012 02010KT P6SM VCTS BKN080CB
     FM292300 07010KT P6SM SCT080=

USA.gov is the U.S. government's official web portal to all federal, state and local government web resources and services.